Flight Track Log - Related Links

Times and Time Zones

All times are in EDT time to prevent confusion due to time zone crossing. See the EJA831 flight status page for this flight to view local times or setup timezone preferences in your user account.

Time Position Orientation Groundspeed Altitude Reporting Facility
EDT Latitude Longitude Course Direction KTS MPH feet Rate Location/Type
Sat 09:24:54 AM 42.4333 -87.8167 336° Northwest 190 219 2,500  Level Chicago TRACON
Sat 09:26:38 AM 42.5033 -87.7822 20° North 233 268 5,900 1,265 Climbing Chicago Center
Sat 09:27:40 AM 42.5764 -87.8031 348° North 272 313 6,000 49 Climbing Chicago Center
Sat 09:28:41 AM 42.6594 -87.8578 334° Northwest 285 328 6,000  Level Chicago Center
Sat 09:29:43 AM 42.7311 -87.9067 333° Northwest 286 329 6,000  Level Chicago Center
Sat 09:30:00 AM 42.7091 -88.0384 336° Northwest  Level FlightAware
Sat 09:30:44 AM 42.7631 -88.0122 292° West 294 338 6,000  Level Chicago Center
Sat 09:31:45 AM 42.7925 -88.1158 291° West 292 336 6,000  Level Chicago Center
Sat 09:32:47 AM 42.8217 -88.2197 291° West 294 338 6,000 -829 Level Chicago Center
Sat 09:33:48 AM 42.8519 -88.3192 293° West 288 331 4,300 -984 Descending Chicago Center
Sat 09:34:49 AM 42.8778 -88.4108 291° West 268 308 4,000 -146 Descending Chicago Center
Sat 09:35:51 AM 42.9050 -88.5053 292° West 266 306 4,000  Level Chicago Center
Sat 09:36:52 AM 42.9331 -88.6036 291° West 271 312 4,000  Level Chicago Center
Sat 09:37:54 AM 42.9658 -88.7194 291° West 276 318 4,000  Level Chicago Center
Sat 09:38:55 AM 42.9939 -88.8186 291° West 278 320 4,000  Level Chicago Center
Sat 09:39:57 AM 42.9983 -88.9183 274° West 267 307 4,000  Level Chicago Center
Sat 09:40:58 AM 42.9981 -89.0172 270° West 263 303 4,000  Level Chicago Center
Sat 09:42:00 AM 42.9981 -89.1172 270° West 262 302 4,000 -98 Level Chicago Center
Sat 09:43:01 AM 43.0006 -89.2139 272° West 258 297 3,800 -639 Descending Chicago Center
Sat 09:44:02 AM 43.0028 -89.3017 272° West 246 283 2,700 -585 Descending Chicago Center
Sat 09:45:04 AM 43.0386 -89.3367 324° Northwest 187 215 2,600 -293 Descending Chicago Center
Sat 09:46:05 AM 43.0697 -89.3483 345° North 141 162 2,100 -634 Descending Chicago Center
Sat 09:47:07 AM 43.1064 -89.3444 North 120 138 1,300 -484 Descending Chicago Center
Sat 09:48:09 AM 43.1331 -89.3431 North 118 136 1,100 -194 Descending Chicago Center
Sat 09:50:00 AM 43.1333 -89.3333 270° West  Level FlightAware

Login

Don't have an account? Register now (free) for customized features, flight alerts, and more!